Aérodrome :
LOGIN :

S'inscrire | Disclaimer

   EN    FR    IT 

 










Légende :    VFR   VFR Marginal   IFR   IFR Intensif   IFR Très Intensif
Visi : 
Plafond : 
>= 8 km
>= 3000ft
5 à 8 km
1000 à 3000 ft
1500m à 5 km
500 à 1000 ft
800 à 1500m
200 à 500 ft
< 800m
< 200 ft
Symboles :   Orages  Brouillard  Fortes neiges  Fortes précipitations  Vent > 20 kt
SIGMETs :   Divers  Orages  Givrage  Turbulence  Onde Orograph.  Cendres Volcan.







- Altitude de l'aérodrome : 885 ft
- Code IATA : BAS
- Voir les cartes d'approche


LFSB - Bale-Mulhouse

DERNIER METAR :
  • 280000Z AUTO 20002KT 9999 FEW020 SCT028 BKN043 17/16 Q1013 TEMPO 30010G20KT 4000 SHRA BKN014 SCT020TCU

METARs EXPIRÉS :
  • 272330Z AUTO 20001KT 9999 SCT019 BKN030 BKN062 18/16 Q1013 TEMPO 30010G20KT 4000 SHRA BKN014 SCT020TCU
  • 272300Z AUTO VRB03KT 9999 FEW020 SCT039 BKN130 18/16 Q1013 TEMPO 4000 SHRA FEW025CB SCT030TCU
  • 272230Z AUTO VRB02KT 9999 FEW021 BKN130 OVC160 17/16 Q1013 TEMPO 4000 SHRA FEW025CB SCT030TCU
  • 272200Z VRB02KT 9999 FEW021 SCT028 BKN033 17/16 Q1013 RESHRA TEMPO 30010G20KT 4000 SHRA SCT030TCU
  • 272130Z 23009KT 200V270 6000 SHRA FEW020CB SCT050TCU BKN073 18/16 Q1012 TEMPO 30010G20KT 4000 SHRA FEW025CB SCT030TCU

TAF TAF LFSB
Valide du 28 à 00h jusqu'au 29 à 00h UTC


272300Z 2800/2824 25008KT 9999 BKN050
PROB40
TEMPO 2800/2807 30010G20KT 4000 SHRA BKN014 SCT020TCU
TEMPO 2808/2815 28010G20KT
BECMG 2817/2820 VRB03KT CAVOK
Météo : +33 3 89 90 31 11
Pas de NOTAMs connus pour ce terrain.



MET'MAP, la Météo Aéronautique d'un coup d'oeil ! - Copyright ORBIFLY Décembre 2007 - Disclaimer

ORBIFLY MET'MAP TEAM :

Programmation & Développement : Alexandra Zaïnal
Conception & Développement : Baudouin d'Aumeries
Co-Programmation & Développement : Marc-Olivier Méhu
Soutien technique & logistique : Manuel Goepfert

Contact : metmap@orbifly.com




SOURCES & CREDITS :

   NOAA